createdAt,value
2022-11-10T00:04:11.228Z,12.25
2022-11-10T00:08:31.914Z,12.18
2022-11-10T00:12:52.509Z,12.16
2022-11-10T00:17:13.322Z,12.28
2022-11-10T00:21:33.547Z,12.36
2022-11-10T00:25:54.685Z,12.37
2022-11-10T00:30:15.270Z,12.37
2022-11-10T00:34:36.400Z,12.37
2022-11-10T00:38:56.958Z,12.35
2022-11-10T00:43:18.645Z,12.33
2022-11-10T00:47:41.972Z,12.36
2022-11-10T00:52:02.868Z,12.37
2022-11-10T00:56:24.432Z,12.23
2022-11-10T01:00:45.285Z,12.23
2022-11-10T01:05:06.141Z,12.24
2022-11-10T01:09:26.632Z,12.13
2022-11-10T01:13:52.604Z,11.98
2022-11-10T01:18:14.074Z,11.96
2022-11-10T01:22:35.376Z,11.88
2022-11-10T01:26:56.433Z,11.97
2022-11-10T01:31:19.776Z,12.00
2022-11-10T01:35:40.279Z,12.01
2022-11-10T01:40:01.052Z,12.06
2022-11-10T01:44:24.169Z,12.15
2022-11-10T01:48:47.925Z,12.18
2022-11-10T01:53:13.702Z,12.16
2022-11-10T01:57:35.137Z,12.19
2022-11-10T02:02:02.055Z,12.19
2022-11-10T02:06:26.761Z,12.27
2022-11-10T02:10:47.192Z,12.33
2022-11-10T02:15:12.871Z,12.37
2022-11-10T02:19:40.677Z,12.35
2022-11-10T02:24:00.862Z,12.31
2022-11-10T02:28:21.644Z,12.28
2022-11-10T02:32:41.980Z,12.11
2022-11-10T02:37:02.975Z,12.21
2022-11-10T02:41:23.672Z,12.26
2022-11-10T02:45:44.470Z,12.30
2022-11-10T02:50:05.266Z,12.35
2022-11-10T02:54:25.593Z,12.33
2022-11-10T02:58:46.168Z,12.22
2022-11-10T03:03:07.050Z,12.21
2022-11-10T03:07:27.468Z,12.26
2022-11-10T03:11:48.169Z,12.22
2022-11-10T03:16:08.750Z,12.26
2022-11-10T03:20:29.273Z,12.15
2022-11-10T03:24:49.861Z,12.08
2022-11-10T03:29:10.220Z,12.12
2022-11-10T03:33:30.650Z,12.10
2022-11-10T03:37:51.494Z,12.02
2022-11-10T03:42:12.200Z,11.99
2022-11-10T03:46:32.882Z,11.86
2022-11-10T03:50:53.422Z,11.76
2022-11-10T03:55:18.014Z,11.76
2022-11-10T03:59:38.405Z,11.81
2022-11-10T04:03:59.036Z,11.73
2022-11-10T04:08:38.250Z,11.80
2022-11-10T04:13:17.168Z,11.84
2022-11-10T04:17:37.805Z,11.80
2022-11-10T04:21:58.544Z,11.81
2022-11-10T04:26:32.837Z,11.78
2022-11-10T04:30:53.114Z,11.87
2022-11-10T04:35:13.488Z,11.94
2022-11-10T04:39:34.102Z,12.02
2022-11-10T04:43:55.119Z,12.00
2022-11-10T04:48:15.337Z,12.01
2022-11-10T04:52:35.950Z,12.05
2022-11-10T04:56:56.878Z,12.06
2022-11-10T05:01:20.243Z,12.03
2022-11-10T05:05:41.038Z,12.13
2022-11-10T05:10:01.340Z,12.22
2022-11-10T05:14:21.856Z,12.14
2022-11-10T05:18:42.713Z,11.97
2022-11-10T05:23:21.860Z,11.80
2022-11-10T05:27:42.905Z,11.82
2022-11-10T05:32:03.670Z,11.86
2022-11-10T05:36:24.130Z,11.90
2022-11-10T05:40:44.900Z,11.81
2022-11-10T05:45:06.345Z,11.78
2022-11-10T05:49:27.512Z,11.77
2022-11-10T05:53:47.872Z,11.75
2022-11-10T05:58:09.158Z,11.49
2022-11-10T06:02:29.639Z,11.39
2022-11-10T06:06:50.304Z,11.38
2022-11-10T06:11:11.083Z,11.46
2022-11-10T06:15:50.517Z,11.63
2022-11-10T06:20:12.856Z,11.65
2022-11-10T06:24:33.679Z,11.59
2022-11-10T06:28:54.558Z,11.63
2022-11-10T06:33:15.282Z,11.72
2022-11-10T06:37:35.947Z,11.84
2022-11-10T06:41:56.655Z,11.92
2022-11-10T06:46:17.222Z,11.94
2022-11-10T06:50:38.148Z,11.94
2022-11-10T06:54:59.167Z,11.95
2022-11-10T06:59:19.821Z,12.02
2022-11-10T07:03:58.509Z,12.20
2022-11-10T07:08:21.679Z,12.38
2022-11-10T07:12:42.166Z,12.52
2022-11-10T07:17:02.862Z,12.70
2022-11-10T07:21:23.385Z,12.87
2022-11-10T07:25:44.114Z,12.97
2022-11-10T07:30:06.488Z,13.15
2022-11-10T07:34:27.116Z,13.45
2022-11-10T07:38:47.992Z,13.70
2022-11-10T07:43:08.364Z,14.02
2022-11-10T07:47:28.918Z,14.29
2022-11-10T07:51:49.447Z,14.61
2022-11-10T07:56:10.368Z,14.87
2022-11-10T08:00:31.225Z,15.18
2022-11-10T08:04:54.083Z,15.52
2022-11-10T08:09:14.558Z,15.64
2022-11-10T08:13:35.238Z,15.73
2022-11-10T08:18:14.187Z,15.89
2022-11-10T08:22:34.632Z,16.20
2022-11-10T08:26:56.311Z,16.36
2022-11-10T08:31:16.967Z,16.84
2022-11-10T08:35:40.814Z,17.19
2022-11-10T08:40:01.027Z,17.45
2022-11-10T08:44:21.722Z,17.68
2022-11-10T08:48:42.536Z,17.90
2022-11-10T08:53:10.799Z,18.06
2022-11-10T08:57:31.160Z,18.29
2022-11-10T09:01:51.999Z,18.52
2022-11-10T09:06:13.210Z,18.49
2022-11-10T09:10:36.267Z,18.49
2022-11-10T09:14:57.091Z,18.65
2022-11-10T09:19:20.062Z,18.70
2022-11-10T09:23:40.869Z,18.76
2022-11-10T09:28:02.257Z,18.83
2022-11-10T09:32:22.899Z,18.98
2022-11-10T09:36:43.664Z,19.04
2022-11-10T09:41:08.878Z,19.22
2022-11-10T09:45:39.399Z,19.38
2022-11-10T09:50:02.966Z,19.13
2022-11-10T09:54:41.524Z,19.23
2022-11-10T09:59:06.855Z,19.15
2022-11-10T10:03:31.837Z,18.90
2022-11-10T10:08:02.506Z,18.36
2022-11-10T10:12:55.081Z,18.09
2022-11-10T10:17:26.753Z,18.05
2022-11-10T10:21:47.606Z,18.24
2022-11-10T10:26:15.932Z,18.22
2022-11-10T10:30:36.660Z,18.28
2022-11-10T10:34:57.817Z,18.49
2022-11-10T10:39:44.097Z,18.46
2022-11-10T10:44:17.115Z,18.42
2022-11-10T10:48:38.048Z,18.48
2022-11-10T10:53:20.123Z,18.74
2022-11-10T10:57:51.347Z,18.73
2022-11-10T11:02:26.305Z,18.68
2022-11-10T11:06:59.752Z,18.71
2022-11-10T11:11:25.880Z,18.68
2022-11-10T11:16:07.839Z,18.45
2022-11-10T11:20:55.462Z,18.31
2022-11-10T11:25:34.274Z,18.30
2022-11-10T11:30:16.648Z,18.24
2022-11-10T11:34:56.136Z,18.40
2022-11-10T11:39:47.159Z,18.42
2022-11-10T11:44:38.297Z,18.30
2022-11-10T11:49:32.156Z,18.20
2022-11-10T11:54:13.688Z,18.02
2022-11-10T11:58:39.891Z,17.91
2022-11-10T12:03:09.376Z,17.81
2022-11-10T12:07:54.667Z,17.73
2022-11-10T12:12:45.301Z,17.87
2022-11-10T12:17:05.652Z,17.96
2022-11-10T12:21:50.486Z,18.02
2022-11-10T12:26:15.342Z,18.10
2022-11-10T12:30:37.341Z,18.25
2022-11-10T12:35:00.503Z,18.60
2022-11-10T12:39:37.939Z,18.90
2022-11-10T12:44:26.607Z,19.07
2022-11-10T12:48:46.928Z,19.12
2022-11-10T12:53:16.958Z,19.14
2022-11-10T12:57:37.510Z,18.99
2022-11-10T13:02:04.928Z,18.91
2022-11-10T13:06:50.654Z,18.84
2022-11-10T13:11:11.706Z,18.76
2022-11-10T13:15:45.738Z,18.70
2022-11-10T13:20:38.783Z,18.50
2022-11-10T13:25:37.661Z,18.42
2022-11-10T13:30:00.471Z,18.43
2022-11-10T13:34:33.923Z,18.32
2022-11-10T13:38:55.796Z,18.28
2022-11-10T13:43:19.544Z,18.19
2022-11-10T13:47:50.466Z,18.03
2022-11-10T13:52:17.136Z,17.88
2022-11-10T13:57:11.730Z,17.73
2022-11-10T14:01:32.311Z,17.71
2022-11-10T14:06:17.704Z,17.56
2022-11-10T14:10:40.426Z,17.60
2022-11-10T14:15:15.173Z,17.57
2022-11-10T14:19:42.868Z,17.47
2022-11-10T14:24:11.476Z,17.46
2022-11-10T14:28:35.496Z,17.49
2022-11-10T14:33:04.993Z,17.51
2022-11-10T14:37:28.389Z,17.60
2022-11-10T14:41:51.146Z,17.74
2022-11-10T14:46:14.345Z,17.86
2022-11-10T14:50:35.839Z,17.92
2022-11-10T14:54:56.919Z,17.86
2022-11-10T14:59:19.147Z,17.92
2022-11-10T15:03:42.463Z,17.92
2022-11-10T15:08:04.690Z,17.88
2022-11-10T15:12:27.973Z,17.90
2022-11-10T15:17:10.161Z,17.98
2022-11-10T15:21:34.385Z,17.79
2022-11-10T15:25:55.459Z,17.61
2022-11-10T15:30:23.560Z,17.45
2022-11-10T15:34:45.821Z,17.30
2022-11-10T15:39:12.548Z,17.14
2022-11-10T15:43:33.258Z,16.97
2022-11-10T15:47:53.921Z,16.71
2022-11-10T15:52:17.474Z,16.55
2022-11-10T15:56:37.821Z,16.37
2022-11-10T16:01:00.367Z,16.38
2022-11-10T16:05:20.571Z,16.20
2022-11-10T16:09:41.192Z,16.00
2022-11-10T16:14:05.703Z,15.79
2022-11-10T16:18:29.429Z,15.70
2022-11-10T16:22:49.731Z,15.86
2022-11-10T16:27:14.784Z,15.94
2022-11-10T16:31:35.272Z,16.19
2022-11-10T16:35:56.627Z,16.32
2022-11-10T16:40:20.092Z,16.22
2022-11-10T16:44:42.780Z,16.18
2022-11-10T16:49:05.251Z,16.18
2022-11-10T16:53:31.318Z,16.07
2022-11-10T16:57:51.757Z,16.01
2022-11-10T17:02:35.788Z,15.97
2022-11-10T17:06:56.368Z,15.73
2022-11-10T17:11:17.416Z,15.67
2022-11-10T17:15:38.246Z,15.41
2022-11-10T17:19:59.208Z,15.21
2022-11-10T17:24:20.359Z,15.10
2022-11-10T17:28:40.609Z,14.91
2022-11-10T17:33:05.521Z,14.71
2022-11-10T17:37:26.195Z,14.60
2022-11-10T17:41:46.982Z,14.48
2022-11-10T17:46:07.699Z,14.55
2022-11-10T17:50:28.289Z,14.53
2022-11-10T17:54:50.221Z,14.49
2022-11-10T17:59:10.784Z,14.40
2022-11-10T18:03:31.435Z,14.41
2022-11-10T18:07:53.028Z,14.41
2022-11-10T18:12:13.456Z,14.49
2022-11-10T18:16:34.014Z,14.40
2022-11-10T18:20:57.321Z,14.49
2022-11-10T18:25:18.134Z,14.65
2022-11-10T18:29:38.601Z,14.76
2022-11-10T18:33:59.188Z,14.80
2022-11-10T18:38:20.119Z,14.84
2022-11-10T18:42:41.418Z,14.87
2022-11-10T18:47:02.506Z,14.93
2022-11-10T18:51:23.144Z,14.98
2022-11-10T18:55:53.553Z,15.08
2022-11-10T19:00:14.563Z,15.02
2022-11-10T19:04:35.331Z,15.20
2022-11-10T19:08:56.715Z,15.26
2022-11-10T19:13:17.689Z,15.25
2022-11-10T19:17:38.181Z,15.24
2022-11-10T19:21:58.877Z,15.26
2022-11-10T19:26:48.455Z,15.21
2022-11-10T19:31:16.241Z,15.22
2022-11-10T19:35:41.649Z,15.17
2022-11-10T19:40:02.653Z,15.20
2022-11-10T19:44:23.528Z,15.22
2022-11-10T19:48:44.526Z,15.18
2022-11-10T19:53:05.149Z,15.04
2022-11-10T19:57:26.520Z,14.92
2022-11-10T20:01:47.115Z,14.69
2022-11-10T20:06:11.005Z,14.53
2022-11-10T20:10:32.250Z,14.36
2022-11-10T20:14:52.965Z,14.20
2022-11-10T20:19:14.440Z,14.14
2022-11-10T20:23:35.126Z,14.02
2022-11-10T20:27:56.272Z,13.87
2022-11-10T20:32:16.978Z,13.69
2022-11-10T20:36:37.567Z,13.64
2022-11-10T20:41:03.278Z,13.60
2022-11-10T20:45:23.659Z,13.52
2022-11-10T20:49:44.415Z,13.38
2022-11-10T20:54:04.869Z,13.24
2022-11-10T20:58:26.054Z,13.10
2022-11-10T21:02:46.818Z,12.91
2022-11-10T21:07:07.496Z,12.94
2022-11-10T21:11:47.277Z,12.59
2022-11-10T21:16:08.444Z,12.46
2022-11-10T21:20:28.826Z,12.28
2022-11-10T21:24:50.607Z,12.18
2022-11-10T21:29:12.026Z,12.53
2022-11-10T21:33:33.179Z,12.80
2022-11-10T21:37:54.078Z,13.00
2022-11-10T21:42:14.378Z,13.09
2022-11-10T21:46:35.856Z,12.94
2022-11-10T21:51:00.904Z,13.08
2022-11-10T21:55:21.211Z,13.03
2022-11-10T21:59:41.896Z,12.83
2022-11-10T22:04:02.732Z,12.67
2022-11-10T22:08:23.442Z,12.63
2022-11-10T22:13:02.536Z,12.49
2022-11-10T22:17:41.811Z,12.39
2022-11-10T22:22:04.340Z,12.35
2022-11-10T22:26:25.785Z,12.29
2022-11-10T22:30:46.561Z,12.25
2022-11-10T22:35:07.847Z,12.08
2022-11-10T22:39:48.452Z,12.02
2022-11-10T22:44:11.312Z,12.08
2022-11-10T22:48:32.722Z,11.96
2022-11-10T22:52:54.025Z,11.88
2022-11-10T22:57:14.622Z,11.82
2022-11-10T23:01:37.383Z,11.76
2022-11-10T23:05:58.028Z,11.72
2022-11-10T23:10:18.610Z,11.64
2022-11-10T23:14:39.422Z,11.40
2022-11-10T23:19:00.534Z,11.35
2022-11-10T23:23:21.380Z,11.20
2022-11-10T23:27:42.269Z,11.14
2022-11-10T23:32:03.329Z,11.04
2022-11-10T23:36:25.999Z,11.08
2022-11-10T23:40:46.485Z,11.00
2022-11-10T23:45:07.596Z,10.96
2022-11-10T23:49:28.046Z,10.89
2022-11-10T23:53:48.775Z,10.83
2022-11-10T23:58:09.416Z,10.76
